createdAt,value
2017-11-07T00:01:17.331Z,6.20
2017-11-07T00:03:46.075Z,6.20
2017-11-07T00:06:15.442Z,6.20
2017-11-07T00:08:43.858Z,6.10
2017-11-07T00:11:12.231Z,6.20
2017-11-07T00:13:40.879Z,6.10
2017-11-07T00:16:09.260Z,6.10
2017-11-07T00:18:37.648Z,6.10
2017-11-07T00:21:06.054Z,6.10
2017-11-07T00:23:35.212Z,6.10
2017-11-07T00:26:03.717Z,6.10
2017-11-07T00:28:32.092Z,6.10
2017-11-07T00:31:00.483Z,6.00
2017-11-07T00:33:28.877Z,6.00
2017-11-07T00:35:58.024Z,6.10
2017-11-07T00:38:28.211Z,6.10
2017-11-07T00:40:56.592Z,6.20
2017-11-07T00:43:24.969Z,6.20
2017-11-07T00:45:53.359Z,6.20
2017-11-07T00:48:21.734Z,6.10
2017-11-07T00:50:50.432Z,6.10
2017-11-07T00:53:18.815Z,6.10
2017-11-07T00:55:47.302Z,6.10
2017-11-07T00:58:15.704Z,6.10
2017-11-07T01:00:44.088Z,6.10
2017-11-07T01:03:12.503Z,6.10
2017-11-07T01:05:40.871Z,6.10
2017-11-07T01:08:10.032Z,6.10
2017-11-07T01:10:38.431Z,6.10
2017-11-07T01:13:06.875Z,6.10
2017-11-07T01:15:35.456Z,6.10
2017-11-07T01:18:03.834Z,6.10
2017-11-07T01:20:32.209Z,6.10
2017-11-07T01:23:00.610Z,6.10
2017-11-07T01:25:28.976Z,6.10
2017-11-07T01:27:57.673Z,6.10
2017-11-07T01:30:26.055Z,6.00
2017-11-07T01:32:54.440Z,6.10
2017-11-07T01:35:22.841Z,6.20
2017-11-07T01:37:51.996Z,6.30
2017-11-07T01:40:20.375Z,6.30
2017-11-07T01:42:48.821Z,6.40
2017-11-07T01:45:17.196Z,6.40
2017-11-07T01:47:45.603Z,6.40
2017-11-07T01:50:14.001Z,6.40
2017-11-07T01:52:42.419Z,6.40
2017-11-07T01:55:11.600Z,6.50
2017-11-07T01:57:40.748Z,6.60
2017-11-07T02:00:09.388Z,6.50
2017-11-07T02:02:38.519Z,6.50
2017-11-07T02:05:06.891Z,6.50
2017-11-07T02:07:35.292Z,6.50
2017-11-07T02:10:03.681Z,6.50
2017-11-07T02:12:32.357Z,6.60
2017-11-07T02:15:00.734Z,6.50
2017-11-07T02:17:29.107Z,6.50
2017-11-07T02:19:57.499Z,6.50
2017-11-07T02:22:25.873Z,6.50
2017-11-07T02:24:54.327Z,6.50
2017-11-07T02:27:22.703Z,6.50
2017-11-07T02:29:51.093Z,6.50
2017-11-07T02:32:19.490Z,6.50
2017-11-07T02:34:47.867Z,6.60
2017-11-07T02:37:16.371Z,6.50
2017-11-07T02:39:44.744Z,6.50
2017-11-07T02:42:13.111Z,6.60
2017-11-07T02:44:42.277Z,6.50
2017-11-07T02:47:10.655Z,6.50
2017-11-07T02:49:39.072Z,6.50
2017-11-07T02:52:07.440Z,6.50
2017-11-07T02:54:35.828Z,6.60
2017-11-07T02:57:04.231Z,6.60
2017-11-07T02:59:32.602Z,6.60
2017-11-07T03:02:01.106Z,6.50
2017-11-07T03:04:29.475Z,6.60
2017-11-07T03:06:58.615Z,6.40
2017-11-07T03:09:27.004Z,6.40
2017-11-07T03:11:55.374Z,6.40
2017-11-07T03:14:23.975Z,6.40
2017-11-07T03:16:52.343Z,6.40
2017-11-07T03:19:20.707Z,6.30
2017-11-07T03:21:49.102Z,6.30
2017-11-07T03:24:17.467Z,6.30
2017-11-07T03:26:46.265Z,6.30
2017-11-07T03:29:14.643Z,6.20
2017-11-07T03:31:43.016Z,6.20
2017-11-07T03:34:11.451Z,6.20
2017-11-07T03:36:40.597Z,6.20
2017-11-07T03:39:09.235Z,6.20
2017-11-07T03:41:38.371Z,6.20
2017-11-07T03:44:06.746Z,6.20
2017-11-07T03:46:35.136Z,6.20
2017-11-07T03:49:03.513Z,6.20
2017-11-07T03:51:31.939Z,6.10
2017-11-07T03:54:01.080Z,6.10
2017-11-07T03:56:29.870Z,6.10
2017-11-07T03:58:58.272Z,6.10
2017-11-07T04:01:26.652Z,6.10
2017-11-07T04:03:55.052Z,6.10
2017-11-07T04:06:23.433Z,6.10
2017-11-07T04:08:51.804Z,6.20
2017-11-07T04:11:20.202Z,6.20
2017-11-07T04:13:49.334Z,6.20
2017-11-07T04:16:17.740Z,6.20
2017-11-07T04:18:46.111Z,6.20
2017-11-07T04:21:15.255Z,6.30
2017-11-07T04:23:44.418Z,6.20
2017-11-07T04:26:12.790Z,6.20
2017-11-07T04:28:41.194Z,6.20
2017-11-07T04:31:09.574Z,6.20
2017-11-07T04:33:37.939Z,6.20
2017-11-07T04:36:06.340Z,6.20
2017-11-07T04:38:35.476Z,6.20
2017-11-07T04:41:04.066Z,6.10
2017-11-07T04:43:32.444Z,6.20
2017-11-07T04:46:00.821Z,6.20
2017-11-07T04:48:29.219Z,6.20
2017-11-07T04:50:57.591Z,6.20
2017-11-07T04:53:26.016Z,6.20
2017-11-07T04:55:55.171Z,6.10
2017-11-07T04:58:23.559Z,6.20
2017-11-07T05:00:52.503Z,6.10
2017-11-07T05:03:20.880Z,6.10
2017-11-07T05:05:49.488Z,6.10
2017-11-07T05:08:17.872Z,6.10
2017-11-07T05:10:46.247Z,6.20
2017-11-07T05:13:14.652Z,6.10
2017-11-07T05:15:43.025Z,6.00
2017-11-07T05:18:11.433Z,6.10
2017-11-07T05:20:40.569Z,6.10
2017-11-07T05:23:08.948Z,6.10
2017-11-07T05:25:37.348Z,6.10
2017-11-07T05:28:05.721Z,6.10
2017-11-07T05:30:34.218Z,6.10
2017-11-07T05:33:02.611Z,6.20
2017-11-07T05:35:30.988Z,6.10
2017-11-07T05:37:59.379Z,6.10
2017-11-07T05:40:28.521Z,6.10
2017-11-07T05:42:57.325Z,6.10
2017-11-07T05:45:25.713Z,6.10
2017-11-07T05:47:54.086Z,6.10
2017-11-07T05:50:22.487Z,6.10
2017-11-07T05:52:51.680Z,6.10
2017-11-07T05:55:20.335Z,6.10
2017-11-07T05:57:48.748Z,6.10
2017-11-07T06:00:17.129Z,6.20
2017-11-07T06:02:45.533Z,6.10
2017-11-07T06:05:14.683Z,6.10
2017-11-07T06:07:43.232Z,6.10
2017-11-07T06:10:11.649Z,6.10
2017-11-07T06:12:40.033Z,6.10
2017-11-07T06:15:08.431Z,6.20
2017-11-07T06:17:37.578Z,6.10
2017-11-07T06:20:06.367Z,6.10
2017-11-07T06:22:34.742Z,6.10
2017-11-07T06:25:03.138Z,6.10
2017-11-07T06:27:31.539Z,6.20
2017-11-07T06:29:59.914Z,6.20
2017-11-07T06:32:28.671Z,6.10
2017-11-07T06:34:57.058Z,6.00
2017-11-07T06:37:25.435Z,6.10
2017-11-07T06:39:53.831Z,6.10
2017-11-07T06:42:22.211Z,6.10
2017-11-07T06:44:50.728Z,6.10
2017-11-07T06:47:19.871Z,6.10
2017-11-07T06:49:48.246Z,6.10
2017-11-07T06:52:16.643Z,6.20
2017-11-07T06:54:45.069Z,6.20
2017-11-07T06:57:13.779Z,6.20
2017-11-07T06:59:42.160Z,6.20
2017-11-07T07:02:10.541Z,6.20
2017-11-07T07:04:38.940Z,6.20
2017-11-07T07:07:07.359Z,6.20
2017-11-07T07:09:36.705Z,6.20
2017-11-07T07:12:05.085Z,6.20
2017-11-07T07:14:33.485Z,6.20
2017-11-07T07:17:01.887Z,6.20
2017-11-07T07:19:31.028Z,6.20
2017-11-07T07:21:59.560Z,6.20
2017-11-07T07:24:28.700Z,6.20
2017-11-07T07:26:57.085Z,6.20
2017-11-07T07:29:25.468Z,6.20
2017-11-07T07:31:53.841Z,6.20
2017-11-07T07:34:22.736Z,6.20
2017-11-07T07:36:51.141Z,6.20
2017-11-07T07:39:19.519Z,6.30
2017-11-07T07:41:47.919Z,6.20
2017-11-07T07:44:16.299Z,6.20
2017-11-07T07:46:45.559Z,6.20
2017-11-07T07:49:13.946Z,6.20
2017-11-07T07:51:42.325Z,6.20
2017-11-07T07:54:10.738Z,6.20
2017-11-07T07:56:39.890Z,6.20
2017-11-07T07:59:08.566Z,6.20
2017-11-07T08:01:36.944Z,6.20
2017-11-07T08:04:05.334Z,6.20
2017-11-07T08:06:34.500Z,6.20
2017-11-07T08:09:02.885Z,6.20
2017-11-07T08:11:31.392Z,6.20
2017-11-07T08:13:59.786Z,6.20
2017-11-07T08:16:28.179Z,6.30
2017-11-07T08:18:56.585Z,6.20
2017-11-07T08:21:24.972Z,6.30
2017-11-07T08:23:53.616Z,6.30
2017-11-07T08:26:21.995Z,6.30
2017-11-07T08:28:50.371Z,6.30
2017-11-07T08:31:18.787Z,6.50
2017-11-07T08:33:47.164Z,6.40
2017-11-07T08:36:15.795Z,6.40
2017-11-07T08:38:44.183Z,6.40
2017-11-07T08:41:12.562Z,6.50
2017-11-07T08:43:40.963Z,6.50
2017-11-07T08:46:10.110Z,6.50
2017-11-07T08:48:38.663Z,6.50
2017-11-07T08:51:07.044Z,6.50
2017-11-07T08:53:35.415Z,6.50
2017-11-07T08:56:04.579Z,6.50
2017-11-07T08:58:32.956Z,6.40
2017-11-07T09:01:01.615Z,6.50
2017-11-07T09:03:30.001Z,6.40
2017-11-07T09:05:59.150Z,6.50
2017-11-07T09:08:28.331Z,6.50
2017-11-07T09:10:57.472Z,6.50
2017-11-07T09:13:26.060Z,6.40
2017-11-07T09:15:54.435Z,6.40
2017-11-07T09:18:22.809Z,6.30
2017-11-07T09:20:51.224Z,6.40
2017-11-07T09:23:19.612Z,6.40
2017-11-07T09:25:48.259Z,6.40
2017-11-07T09:28:16.643Z,6.30
2017-11-07T09:30:45.022Z,6.30
2017-11-07T09:33:13.424Z,6.30
2017-11-07T09:35:43.306Z,6.30
2017-11-07T09:38:11.907Z,6.30
2017-11-07T09:40:40.362Z,6.30
2017-11-07T09:43:08.768Z,6.40
2017-11-07T09:45:37.174Z,6.40
2017-11-07T09:48:06.351Z,6.40
2017-11-07T09:50:34.943Z,6.40
2017-11-07T09:53:03.327Z,6.40
2017-11-07T09:55:31.700Z,6.50
2017-11-07T09:58:00.100Z,6.40
2017-11-07T10:00:29.237Z,6.50
2017-11-07T10:02:58.132Z,6.50
2017-11-07T10:05:26.502Z,6.50
2017-11-07T10:07:54.876Z,6.50
2017-11-07T10:10:23.280Z,6.50
2017-11-07T10:12:51.654Z,6.50
2017-11-07T10:15:20.933Z,6.50
2017-11-07T10:17:49.314Z,6.40
2017-11-07T10:20:17.714Z,6.50
2017-11-07T10:22:46.124Z,6.50
2017-11-07T10:25:14.512Z,6.50
2017-11-07T10:27:43.707Z,6.50
2017-11-07T10:30:12.111Z,6.50
2017-11-07T10:32:40.490Z,6.50
2017-11-07T10:35:08.903Z,6.50
2017-11-07T10:37:37.287Z,6.50
2017-11-07T10:40:05.717Z,6.50
2017-11-07T10:42:34.847Z,6.60
2017-11-07T10:45:03.297Z,6.60
2017-11-07T10:47:31.694Z,6.60
2017-11-07T10:50:00.068Z,6.60
2017-11-07T10:52:28.581Z,6.50
2017-11-07T10:54:56.968Z,6.50
2017-11-07T10:57:25.360Z,6.60
2017-11-07T10:59:53.759Z,6.60
2017-11-07T11:02:22.911Z,6.60
2017-11-07T11:04:52.070Z,6.70
2017-11-07T11:07:20.477Z,6.60
2017-11-07T11:09:48.860Z,6.70
2017-11-07T11:12:17.263Z,6.70
2017-11-07T11:14:45.673Z,6.80
2017-11-07T11:17:14.813Z,6.80
2017-11-07T11:19:43.209Z,6.80
2017-11-07T11:22:11.583Z,6.90
2017-11-07T11:24:40.265Z,6.90
2017-11-07T11:27:09.584Z,7.00
2017-11-07T11:29:38.007Z,6.90
2017-11-07T11:32:06.425Z,7.00
2017-11-07T11:34:34.804Z,7.10
2017-11-07T11:37:03.496Z,7.10
2017-11-07T11:39:31.880Z,7.10
2017-11-07T11:42:00.263Z,7.10
2017-11-07T11:44:28.655Z,7.10
2017-11-07T11:46:57.040Z,7.20
2017-11-07T11:49:26.241Z,7.20
2017-11-07T11:51:55.388Z,7.10
2017-11-07T11:54:23.767Z,7.10
2017-11-07T11:56:52.162Z,7.20
2017-11-07T11:59:20.532Z,7.20
2017-11-07T12:01:50.029Z,7.30
2017-11-07T12:04:18.394Z,7.20
2017-11-07T12:06:46.765Z,7.30
2017-11-07T12:09:15.177Z,7.30
2017-11-07T12:11:43.570Z,7.30
2017-11-07T12:14:12.220Z,7.30
2017-11-07T12:16:40.595Z,7.20
2017-11-07T12:19:09.023Z,7.20
2017-11-07T12:21:37.414Z,7.20
2017-11-07T12:24:06.543Z,7.40
2017-11-07T12:26:35.141Z,7.40
2017-11-07T12:29:03.516Z,7.50
2017-11-07T12:31:31.909Z,7.40
2017-11-07T12:34:00.313Z,7.40
2017-11-07T12:36:28.814Z,7.40
2017-11-07T12:38:58.256Z,7.30
2017-11-07T12:41:26.628Z,7.20
2017-11-07T12:43:54.995Z,7.30
2017-11-07T12:46:23.390Z,7.30
2017-11-07T12:48:51.773Z,7.40
2017-11-07T12:54:27.994Z,7.30
2017-11-07T12:56:56.539Z,7.30
2017-11-07T12:59:24.911Z,7.40
2017-11-07T13:01:53.292Z,7.40
2017-11-07T13:04:21.686Z,7.50
2017-11-07T13:06:50.064Z,7.50
2017-11-07T13:09:18.627Z,7.40
2017-11-07T13:11:46.995Z,7.40
2017-11-07T13:14:15.372Z,7.40
2017-11-07T13:16:43.768Z,7.50
2017-11-07T13:19:12.147Z,7.40
2017-11-07T13:21:40.810Z,7.40
2017-11-07T13:24:09.203Z,7.30
2017-11-07T13:26:37.580Z,7.40
2017-11-07T13:29:05.982Z,7.40
2017-11-07T13:31:34.352Z,7.40
2017-11-07T13:34:02.871Z,7.40
2017-11-07T13:36:32.040Z,7.40
2017-11-07T13:39:00.471Z,7.40
2017-11-07T13:41:29.650Z,7.40
2017-11-07T13:43:58.794Z,7.40
2017-11-07T13:46:27.209Z,7.40
2017-11-07T13:48:55.579Z,7.40
2017-11-07T13:51:23.952Z,7.50
2017-11-07T13:53:52.357Z,7.40
2017-11-07T13:56:20.744Z,7.40
2017-11-07T13:58:49.963Z,7.60
2017-11-07T14:01:18.342Z,7.60
2017-11-07T14:03:46.717Z,7.60
2017-11-07T14:06:15.118Z,7.60
2017-11-07T14:08:43.528Z,7.60
2017-11-07T14:11:12.099Z,7.60
2017-11-07T14:13:40.500Z,7.70
2017-11-07T14:16:08.926Z,7.70
2017-11-07T14:18:37.388Z,7.70
2017-11-07T14:21:06.519Z,7.60
2017-11-07T14:23:35.109Z,7.60
2017-11-07T14:26:03.517Z,7.60
2017-11-07T14:28:31.886Z,7.60
2017-11-07T14:31:00.296Z,7.60
2017-11-07T14:33:29.433Z,7.60
2017-11-07T14:35:58.020Z,7.60
2017-11-07T14:38:26.388Z,7.60
2017-11-07T14:40:54.766Z,7.60
2017-11-07T14:43:23.163Z,7.50
2017-11-07T14:45:51.557Z,7.50
2017-11-07T14:48:20.205Z,7.60
2017-11-07T14:50:48.581Z,7.50
2017-11-07T14:53:16.959Z,7.60
2017-11-07T14:55:45.351Z,7.50
2017-11-07T14:58:13.727Z,7.50
2017-11-07T15:00:42.321Z,7.60
2017-11-07T15:03:10.687Z,7.60
2017-11-07T15:05:39.089Z,7.60
2017-11-07T15:08:07.603Z,7.60
2017-11-07T15:10:36.746Z,7.60
2017-11-07T15:13:05.401Z,7.50
2017-11-07T15:15:34.547Z,7.70
2017-11-07T15:18:03.048Z,7.60
2017-11-07T15:20:32.039Z,7.60
2017-11-07T15:23:00.412Z,7.60
2017-11-07T15:25:29.069Z,7.60
2017-11-07T15:27:57.475Z,7.60
2017-11-07T15:30:25.852Z,7.60
2017-11-07T15:32:54.291Z,7.60
2017-11-07T15:35:22.713Z,7.60
2017-11-07T15:37:51.216Z,7.70
2017-11-07T15:40:20.355Z,7.70
2017-11-07T15:42:48.732Z,7.70
2017-11-07T15:45:17.155Z,7.70
2017-11-07T15:47:45.529Z,7.80
2017-11-07T15:50:14.188Z,7.80
2017-11-07T15:52:42.560Z,7.70
2017-11-07T15:55:10.927Z,7.70
2017-11-07T15:57:39.315Z,7.70
2017-11-07T16:00:07.687Z,7.80
2017-11-07T16:02:36.420Z,7.80
2017-11-07T16:05:05.588Z,7.80
2017-11-07T16:07:33.963Z,7.80
2017-11-07T16:10:02.373Z,7.80
2017-11-07T16:12:30.748Z,7.80
2017-11-07T16:14:59.398Z,7.80
2017-11-07T16:17:27.775Z,7.80
2017-11-07T16:19:56.142Z,7.80
2017-11-07T16:22:24.536Z,7.80
2017-11-07T16:24:52.907Z,7.80
2017-11-07T16:27:21.430Z,7.90
2017-11-07T16:29:50.738Z,7.80
2017-11-07T16:32:19.120Z,7.80
2017-11-07T16:34:47.515Z,7.80
2017-11-07T16:37:16.660Z,7.80
2017-11-07T16:39:45.226Z,7.80
2017-11-07T16:42:13.604Z,7.80
2017-11-07T16:44:41.983Z,7.80
2017-11-07T16:47:10.390Z,7.80
2017-11-07T16:49:38.766Z,7.80
2017-11-07T16:52:07.325Z,7.80
2017-11-07T16:54:35.704Z,7.80
2017-11-07T16:57:04.083Z,7.90
2017-11-07T16:59:32.474Z,7.80
2017-11-07T17:02:00.843Z,7.80
2017-11-07T17:04:29.256Z,7.80
2017-11-07T17:06:57.624Z,7.90
2017-11-07T17:09:26.003Z,7.90
2017-11-07T17:11:54.403Z,7.90
2017-11-07T17:14:23.547Z,7.90
2017-11-07T17:16:52.332Z,7.80
2017-11-07T17:19:20.703Z,7.90
2017-11-07T17:21:49.081Z,7.90
2017-11-07T17:24:17.475Z,7.90
2017-11-07T17:26:46.105Z,7.90
2017-11-07T17:29:14.531Z,7.80
2017-11-07T17:31:42.903Z,7.80
2017-11-07T17:34:11.356Z,7.90
2017-11-07T17:36:40.534Z,7.90
2017-11-07T17:39:08.919Z,7.90
2017-11-07T17:41:38.272Z,7.90
2017-11-07T17:44:06.986Z,7.90
2017-11-07T17:46:35.360Z,7.90
2017-11-07T17:49:03.761Z,7.80
2017-11-07T17:51:32.139Z,7.90
2017-11-07T17:54:00.563Z,7.80
2017-11-07T17:56:28.943Z,7.80
2017-11-07T17:58:57.319Z,7.80
2017-11-07T18:01:25.727Z,7.80
2017-11-07T18:03:54.107Z,7.80
2017-11-07T18:06:22.758Z,7.80
2017-11-07T18:08:51.153Z,7.80
2017-11-07T18:11:19.643Z,7.90
2017-11-07T18:13:48.229Z,7.80
2017-11-07T18:16:16.728Z,7.90
2017-11-07T18:18:45.913Z,7.90
2017-11-07T18:21:14.303Z,7.80
2017-11-07T18:23:42.689Z,7.80
2017-11-07T18:26:11.088Z,7.80
2017-11-07T18:28:40.253Z,7.80
2017-11-07T18:31:08.819Z,7.80
2017-11-07T18:33:37.240Z,7.70
2017-11-07T18:36:05.639Z,7.70
2017-11-07T18:38:34.322Z,7.70
2017-11-07T18:41:03.467Z,7.80
2017-11-07T18:43:31.836Z,7.70
2017-11-07T18:46:00.240Z,7.80
2017-11-07T18:48:28.702Z,7.80
2017-11-07T18:50:57.125Z,7.80
2017-11-07T18:53:26.265Z,7.80
2017-11-07T18:55:54.635Z,7.80
2017-11-07T18:58:23.063Z,7.70
2017-11-07T19:00:51.451Z,7.70
2017-11-07T19:03:20.910Z,7.70
2017-11-07T19:05:49.287Z,7.70
2017-11-07T19:08:17.654Z,7.70
2017-11-07T19:10:46.052Z,7.70
2017-11-07T19:13:14.427Z,7.70
2017-11-07T19:15:42.956Z,7.70
2017-11-07T19:18:12.099Z,7.60
2017-11-07T19:20:40.476Z,7.60
2017-11-07T19:23:08.871Z,7.60
2017-11-07T19:25:37.564Z,7.70
2017-11-07T19:28:06.427Z,7.60
2017-11-07T19:30:35.102Z,7.60
2017-11-07T19:33:03.762Z,7.70
2017-11-07T19:35:32.442Z,7.70
2017-11-07T19:38:01.170Z,7.60
2017-11-07T19:40:29.762Z,7.60
2017-11-07T19:42:58.160Z,7.70
2017-11-07T19:45:26.553Z,7.80
2017-11-07T19:47:54.953Z,7.70
2017-11-07T19:50:24.091Z,7.60
2017-11-07T19:52:52.878Z,7.60
2017-11-07T19:55:21.404Z,7.60
2017-11-07T19:57:50.551Z,7.60
2017-11-07T20:00:18.990Z,7.60
2017-11-07T20:02:48.195Z,7.80
2017-11-07T20:05:17.641Z,7.70
2017-11-07T20:07:46.043Z,7.70
2017-11-07T20:10:16.330Z,7.80
2017-11-07T20:12:44.811Z,7.80
2017-11-07T20:15:13.305Z,7.80
2017-11-07T20:17:42.562Z,7.80
2017-11-07T20:20:10.953Z,7.70
2017-11-07T20:22:39.777Z,7.80
2017-11-07T20:25:08.690Z,7.80
2017-11-07T20:27:37.059Z,7.90
2017-11-07T20:30:05.484Z,7.90
2017-11-07T20:32:33.871Z,7.80
2017-11-07T20:35:02.483Z,7.80
2017-11-07T20:37:30.929Z,7.80
2017-11-07T20:39:59.341Z,7.70
2017-11-07T20:42:28.233Z,7.70
2017-11-07T20:44:56.654Z,7.80
2017-11-07T20:47:25.358Z,7.90
2017-11-07T20:49:53.759Z,7.90
2017-11-07T20:52:22.131Z,7.90
2017-11-07T20:54:50.905Z,7.90
2017-11-07T20:57:19.289Z,7.90
2017-11-07T20:59:47.807Z,7.90
2017-11-07T21:02:17.014Z,7.60
2017-11-07T21:04:45.395Z,7.60
2017-11-07T21:07:14.143Z,7.60
2017-11-07T21:09:42.536Z,7.50
2017-11-07T21:12:11.036Z,7.60
2017-11-07T21:14:39.431Z,7.70
2017-11-07T21:17:07.886Z,7.70
2017-11-07T21:19:37.379Z,7.70
2017-11-07T21:22:05.792Z,7.60
2017-11-07T21:24:34.364Z,7.70
2017-11-07T21:27:02.794Z,7.70
2017-11-07T21:29:31.237Z,7.60
2017-11-07T21:32:00.439Z,7.40
2017-11-07T21:34:28.810Z,7.40
2017-11-07T21:36:57.207Z,7.60
2017-11-07T21:39:26.383Z,7.40
2017-11-07T21:41:54.751Z,7.40
2017-11-07T21:44:23.273Z,7.40
2017-11-07T21:46:52.410Z,7.20
2017-11-07T21:49:20.788Z,7.20
2017-11-07T21:51:49.211Z,7.20
2017-11-07T21:54:17.597Z,7.00
2017-11-07T21:56:46.878Z,6.90
2017-11-07T21:59:15.263Z,6.90
2017-11-07T22:01:43.631Z,6.80
2017-11-07T22:04:12.020Z,6.60
2017-11-07T22:06:40.431Z,6.60
2017-11-07T22:09:08.831Z,6.50
2017-11-07T22:11:37.199Z,6.40
2017-11-07T22:14:05.576Z,6.40
2017-11-07T22:16:53.555Z,6.40
2017-11-07T22:19:21.941Z,6.30
2017-11-07T22:21:50.505Z,6.30
2017-11-07T22:24:18.885Z,6.20
2017-11-07T22:26:53.635Z,6.40
2017-11-07T22:29:22.015Z,6.50
2017-11-07T22:31:50.659Z,6.50
2017-11-07T22:34:19.044Z,6.60
2017-11-07T22:36:47.452Z,6.40
2017-11-07T22:39:15.854Z,6.50
2017-11-07T22:41:44.986Z,6.50
2017-11-07T22:44:13.507Z,6.40
2017-11-07T22:46:41.874Z,6.40
2017-11-07T22:49:10.242Z,6.40
2017-11-07T22:51:38.654Z,6.40
2017-11-07T22:54:07.027Z,6.40
2017-11-07T22:56:35.779Z,6.40
2017-11-07T22:59:04.160Z,6.40
2017-11-07T23:01:32.541Z,6.30
2017-11-07T23:04:00.928Z,6.40
2017-11-07T23:06:29.295Z,6.30
2017-11-07T23:08:57.807Z,6.30
2017-11-07T23:11:26.183Z,6.30
2017-11-07T23:13:54.550Z,6.30
2017-11-07T23:16:22.939Z,6.40
2017-11-07T23:18:51.316Z,6.30
2017-11-07T23:21:19.721Z,6.40
2017-11-07T23:23:48.851Z,6.50
2017-11-07T23:26:17.244Z,6.50
2017-11-07T23:28:45.643Z,6.40
2017-11-07T23:31:14.015Z,6.30
2017-11-07T23:33:42.430Z,6.30
2017-11-07T23:36:11.563Z,6.40
2017-11-07T23:38:39.930Z,6.30
2017-11-07T23:41:08.319Z,6.40
2017-11-07T23:43:36.691Z,6.40
2017-11-07T23:46:05.286Z,6.20
2017-11-07T23:48:33.684Z,6.20
2017-11-07T23:51:02.057Z,6.20
2017-11-07T23:53:30.462Z,6.20
2017-11-07T23:55:58.841Z,6.10
2017-11-07T23:58:30.237Z,6.10
